Accueil
METAR-TAF:

METAR-TAF

Aéroports :

Aéroport de Rodez-Aveyron, Marcillac

Rodez, France

latitude: 44-24N, longitude: 002-29E, altitude: 581 m

Observation

Le bulletin a été fait il y a 27 minutes, à 07:30 UTC
Vent 13 kt de est
Température 4°C
Humidité 75%
Pression 1032 hPa
Visibilité 10 km ou plus
pas de nuages en-dessous de 1500 mètres et pas de cumulonimbus.

METAR: LFCR 210730Z AUTO 09013KT CAVOK 04/00 Q1032 NOSIG

Heure: 08:57 (07:57 UTC)

Prévision

Le bulletin a été fait il y a 2 heures et 57 minutes, à 05:00 UTC
Prévision valable du 21 à 06 UTC au 22 à 06 UTC
Vent 6 kt de nord-est
Visibilité 10 km ou plus
pas de nuages en-dessous de 1500 mètres et pas de cumulonimbus.

TAF: LFCR 210500Z 2106/2206 04006KT CAVOK

Observations et prévisions météorologiques de plus de 4000 aéroports (messages METAR et TAF).

Les stations disponibles sont représentées par des disques jaunes et rouges sur la carte.

Passer la souris dessus pour voir le nom de la station.

Cliquer dessus pour voir les observations et prévisions météorologiques.

Pour changer de carte: cliquez sur les boutons verts avec une croix noire pour zoomer, sur le bouton vert avec un tiret pour effectuer un zoom arrière, ou sur les flèches vertes pour les cartes adjacentes.


METAR-TAF: